createdAt,value
2019-01-25T00:01:27.912Z,18.20
2019-01-25T00:03:56.832Z,18.20
2019-01-25T00:06:25.611Z,18.20
2019-01-25T00:08:54.400Z,18.20
2019-01-25T00:11:24.361Z,18.20
2019-01-25T00:13:53.148Z,18.20
2019-01-25T00:16:21.936Z,18.20
2019-01-25T00:18:50.724Z,18.20
2019-01-25T00:21:19.516Z,18.20
2019-01-25T00:23:48.318Z,18.20
2019-01-25T00:26:17.165Z,18.20
2019-01-25T00:28:45.967Z,18.20
2019-01-25T00:31:14.820Z,18.10
2019-01-25T00:33:43.616Z,18.20
2019-01-25T00:36:12.817Z,18.10
2019-01-25T00:38:41.652Z,18.10
2019-01-25T00:41:10.448Z,18.10
2019-01-25T00:43:39.236Z,18.10
2019-01-25T00:46:08.030Z,18.10
2019-01-25T00:48:36.883Z,18.10
2019-01-25T00:51:05.680Z,18.10
2019-01-25T00:53:34.465Z,18.00
2019-01-25T00:56:04.892Z,18.00
2019-01-25T00:58:33.693Z,18.00
2019-01-25T01:01:02.483Z,18.00
2019-01-25T01:03:31.288Z,18.00
2019-01-25T01:06:00.076Z,18.00
2019-01-25T01:08:28.884Z,18.00
2019-01-25T01:10:57.681Z,18.00
2019-01-25T01:13:26.488Z,18.00
2019-01-25T01:15:55.275Z,18.00
2019-01-25T01:18:24.344Z,18.00
2019-01-25T01:20:53.143Z,18.00
2019-01-25T01:23:21.939Z,18.00
2019-01-25T01:25:50.736Z,18.00
2019-01-25T01:28:19.528Z,17.90
2019-01-25T01:30:48.319Z,18.00
2019-01-25T01:33:17.108Z,17.90
2019-01-25T01:35:45.899Z,17.90
2019-01-25T01:38:14.682Z,17.90
2019-01-25T01:40:43.579Z,17.90
2019-01-25T01:43:13.539Z,17.90
2019-01-25T01:45:42.342Z,17.90
2019-01-25T01:48:11.135Z,17.90
2019-01-25T01:50:39.923Z,17.90
2019-01-25T01:53:08.712Z,17.80
2019-01-25T01:55:37.507Z,17.80
2019-01-25T01:58:06.299Z,17.80
2019-01-25T02:00:35.087Z,17.80
2019-01-25T02:03:03.915Z,17.80
2019-01-25T02:05:32.699Z,17.80
2019-01-25T02:08:01.483Z,17.90
2019-01-25T02:10:30.478Z,17.80
2019-01-25T02:12:59.307Z,17.80
2019-01-25T02:15:28.091Z,17.80
2019-01-25T02:17:56.879Z,17.70
2019-01-25T02:20:26.841Z,17.70
2019-01-25T02:22:55.647Z,17.70
2019-01-25T02:25:24.435Z,17.60
2019-01-25T02:27:53.235Z,17.60
2019-01-25T02:30:23.200Z,17.60
2019-01-25T02:32:52.013Z,17.60
2019-01-25T02:35:20.792Z,17.60
2019-01-25T02:37:49.585Z,17.60
2019-01-25T02:40:22.472Z,17.50
2019-01-25T02:42:51.344Z,17.50
2019-01-25T02:45:20.187Z,17.50
2019-01-25T02:47:48.983Z,17.40
2019-01-25T02:50:18.556Z,17.40
2019-01-25T02:52:47.424Z,17.40
2019-01-25T02:55:16.584Z,17.40
2019-01-25T02:57:45.379Z,17.40
2019-01-25T03:00:16.616Z,17.40
2019-01-25T03:02:45.416Z,17.30
2019-01-25T03:05:15.089Z,17.40
2019-01-25T03:07:43.887Z,17.30
2019-01-25T03:10:16.303Z,17.30
2019-01-25T03:12:45.092Z,17.30
2019-01-25T03:15:15.175Z,17.30
2019-01-25T03:17:44.079Z,17.20
2019-01-25T03:20:13.735Z,17.20
2019-01-25T03:22:42.543Z,17.20
2019-01-25T03:25:15.539Z,17.20
2019-01-25T03:27:44.340Z,17.20
2019-01-25T03:30:14.769Z,17.20
2019-01-25T03:32:43.563Z,17.10
2019-01-25T03:35:13.309Z,17.10
2019-01-25T03:37:42.095Z,17.10
2019-01-25T03:40:15.466Z,17.10
2019-01-25T03:42:44.251Z,17.10
2019-01-25T03:45:13.908Z,17.00
2019-01-25T03:47:42.703Z,17.00
2019-01-25T03:50:13.694Z,17.00
2019-01-25T03:52:42.477Z,17.00
2019-01-25T03:55:12.233Z,17.00
2019-01-25T03:57:41.025Z,17.00
2019-01-25T04:00:11.446Z,17.00
2019-01-25T04:02:40.235Z,16.90
2019-01-25T04:05:09.897Z,16.90
2019-01-25T04:07:38.685Z,16.90
2019-01-25T04:10:09.116Z,16.90
2019-01-25T04:12:37.912Z,16.90
2019-01-25T04:15:08.405Z,16.90
2019-01-25T04:17:37.209Z,16.90
2019-01-25T04:20:07.637Z,16.90
2019-01-25T04:22:36.510Z,16.90
2019-01-25T04:25:07.567Z,16.80
2019-01-25T04:27:36.360Z,16.80
2019-01-25T04:30:06.781Z,16.80
2019-01-25T04:32:35.575Z,16.80
2019-01-25T04:35:05.342Z,16.80
2019-01-25T04:37:34.147Z,16.80
2019-01-25T04:40:04.412Z,16.80
2019-01-25T04:42:33.209Z,16.80
2019-01-25T04:45:02.020Z,16.70
2019-01-25T04:47:31.991Z,16.70
2019-01-25T04:50:00.853Z,16.70
2019-01-25T04:52:29.656Z,16.70
2019-01-25T04:54:58.443Z,16.70
2019-01-25T04:57:27.259Z,16.70
2019-01-25T04:59:56.047Z,16.70
2019-01-25T05:02:24.845Z,16.70
2019-01-25T05:04:53.636Z,16.70
2019-01-25T05:07:22.419Z,16.70
2019-01-25T05:09:51.216Z,16.70
2019-01-25T05:12:20.004Z,16.70
2019-01-25T05:14:48.794Z,16.70
2019-01-25T05:17:17.575Z,16.60
2019-01-25T05:19:46.363Z,16.60
2019-01-25T05:22:15.162Z,16.60
2019-01-25T05:24:43.958Z,16.60
2019-01-25T05:27:12.747Z,16.60
2019-01-25T05:29:45.932Z,16.60
2019-01-25T05:32:14.719Z,16.60
2019-01-25T05:34:43.509Z,16.60
2019-01-25T05:37:12.300Z,16.60
2019-01-25T05:39:41.096Z,16.60
2019-01-25T05:42:09.884Z,16.50
2019-01-25T05:44:38.680Z,16.50
2019-01-25T05:47:08.337Z,16.50
2019-01-25T05:49:37.128Z,16.50
2019-01-25T05:52:08.060Z,16.50
2019-01-25T05:54:36.892Z,16.50
2019-01-25T05:57:05.711Z,16.50
2019-01-25T05:59:34.507Z,16.50
2019-01-25T06:02:03.875Z,16.50
2019-01-25T06:04:33.699Z,16.50
2019-01-25T06:07:02.493Z,16.50
2019-01-25T06:09:31.285Z,16.50
2019-01-25T06:12:01.144Z,16.50
2019-01-25T06:14:29.936Z,16.50
2019-01-25T06:16:58.723Z,16.50
2019-01-25T06:19:27.518Z,16.60
2019-01-25T06:21:56.300Z,16.70
2019-01-25T06:24:25.104Z,16.80
2019-01-25T06:26:54.031Z,16.80
2019-01-25T06:29:22.819Z,16.90
2019-01-25T06:31:51.619Z,17.00
2019-01-25T06:34:20.772Z,17.10
2019-01-25T06:36:49.564Z,17.20
2019-01-25T06:39:18.366Z,17.30
2019-01-25T06:41:47.168Z,17.40
2019-01-25T06:44:16.067Z,17.50
2019-01-25T06:46:44.858Z,17.60
2019-01-25T06:49:13.665Z,17.60
2019-01-25T06:51:42.461Z,17.70
2019-01-25T06:54:11.251Z,17.80
2019-01-25T06:56:40.044Z,17.80
2019-01-25T06:59:13.026Z,17.90
2019-01-25T07:01:43.451Z,18.00
2019-01-25T07:04:12.239Z,18.00
2019-01-25T07:06:41.052Z,18.10
2019-01-25T07:09:09.841Z,18.20
2019-01-25T07:11:42.194Z,18.20
2019-01-25T07:14:09.133Z,18.30
2019-01-25T07:16:39.096Z,18.30
2019-01-25T07:19:07.891Z,18.40
2019-01-25T07:21:36.686Z,18.50
2019-01-25T07:24:05.479Z,18.50
2019-01-25T07:26:34.280Z,18.60
2019-01-25T07:29:03.084Z,18.60
2019-01-25T07:31:31.888Z,18.70
2019-01-25T07:34:00.697Z,18.70
2019-01-25T07:36:29.504Z,18.80
2019-01-25T07:38:58.355Z,18.80
2019-01-25T07:41:27.164Z,18.80
2019-01-25T07:43:56.057Z,18.90
2019-01-25T07:46:24.831Z,18.90
2019-01-25T07:48:53.628Z,19.00
2019-01-25T07:51:22.426Z,19.00
2019-01-25T07:53:51.224Z,19.00
2019-01-25T07:56:21.208Z,19.10
2019-01-25T07:58:50.074Z,19.10
2019-01-25T08:01:20.044Z,19.10
2019-01-25T08:03:48.914Z,19.20
2019-01-25T08:06:17.712Z,19.20
2019-01-25T08:08:46.527Z,19.20
2019-01-25T08:11:15.316Z,19.20
2019-01-25T08:13:44.116Z,19.20
2019-01-25T08:16:12.992Z,19.20
2019-01-25T08:18:42.475Z,19.30
2019-01-25T08:21:11.327Z,19.30
2019-01-25T08:23:40.120Z,19.30
2019-01-25T08:26:08.912Z,19.30
2019-01-25T08:28:37.732Z,19.40
2019-01-25T08:31:06.577Z,19.40
2019-01-25T08:33:35.365Z,19.40
2019-01-25T08:36:05.499Z,19.40
2019-01-25T08:38:34.290Z,19.40
2019-01-25T08:41:03.162Z,19.40
2019-01-25T08:43:31.996Z,19.50
2019-01-25T08:46:01.286Z,19.50
2019-01-25T08:48:30.143Z,19.50
2019-01-25T08:50:58.943Z,19.50
2019-01-25T08:53:27.755Z,19.40
2019-01-25T08:55:56.617Z,19.50
2019-01-25T08:58:25.416Z,19.50
2019-01-25T09:00:54.210Z,19.50
2019-01-25T09:03:23.011Z,19.50
2019-01-25T09:05:51.799Z,19.50
2019-01-25T09:08:20.596Z,19.50
2019-01-25T09:10:49.392Z,19.50
2019-01-25T09:13:18.212Z,19.50
2019-01-25T09:15:47.010Z,19.50
2019-01-25T09:18:15.792Z,19.50
2019-01-25T09:20:44.581Z,19.60
2019-01-25T09:23:13.369Z,19.60
2019-01-25T09:25:42.158Z,19.70
2019-01-25T09:28:10.948Z,19.70
2019-01-25T09:30:39.770Z,19.70
2019-01-25T09:33:08.645Z,19.80
2019-01-25T09:35:37.432Z,19.80
2019-01-25T09:38:06.303Z,19.80
2019-01-25T09:40:35.165Z,19.90
2019-01-25T09:43:03.953Z,19.90
2019-01-25T09:45:34.040Z,19.90
2019-01-25T09:48:02.827Z,19.90
2019-01-25T09:50:31.628Z,20.00
2019-01-25T09:53:00.413Z,20.00
2019-01-25T09:55:29.208Z,20.00
2019-01-25T09:57:59.637Z,20.00
2019-01-25T10:00:36.109Z,20.00
2019-01-25T10:03:06.078Z,20.00
2019-01-25T10:05:34.899Z,20.10
2019-01-25T10:08:03.680Z,20.10
2019-01-25T10:10:32.644Z,20.10
2019-01-25T10:13:01.434Z,20.10
2019-01-25T10:15:30.691Z,20.10
2019-01-25T10:17:59.511Z,20.10
2019-01-25T10:20:28.369Z,20.10
2019-01-25T10:22:57.161Z,20.10
2019-01-25T10:25:25.956Z,20.10
2019-01-25T10:27:54.761Z,20.10
2019-01-25T10:30:27.213Z,20.10
2019-01-25T10:32:56.004Z,20.10
2019-01-25T10:35:24.869Z,20.10
2019-01-25T10:37:53.660Z,20.10
2019-01-25T10:40:22.925Z,20.10
2019-01-25T10:42:53.515Z,20.10
2019-01-25T10:45:39.159Z,20.10
2019-01-25T10:48:08.559Z,20.10
2019-01-25T10:50:37.349Z,20.10
2019-01-25T10:53:06.910Z,20.10
2019-01-25T10:55:35.705Z,20.10
2019-01-25T10:58:05.170Z,20.10
2019-01-25T11:00:33.965Z,20.20
2019-01-25T11:03:02.768Z,20.20
2019-01-25T11:05:31.552Z,20.20
2019-01-25T11:08:00.351Z,20.20
2019-01-25T11:10:29.378Z,20.20
2019-01-25T11:13:00.975Z,20.20
2019-01-25T11:15:29.829Z,20.30
2019-01-25T11:17:58.643Z,20.30
2019-01-25T11:20:27.452Z,20.20
2019-01-25T11:22:56.240Z,20.20
2019-01-25T11:25:26.663Z,20.20
2019-01-25T11:27:55.447Z,20.20
2019-01-25T11:30:24.317Z,20.10
2019-01-25T11:32:53.114Z,20.20
2019-01-25T11:35:21.906Z,20.20
2019-01-25T11:37:50.684Z,20.20
2019-01-25T11:40:23.780Z,20.20
2019-01-25T11:42:53.723Z,20.10
2019-01-25T11:45:22.748Z,20.20
2019-01-25T11:47:51.540Z,20.20
2019-01-25T11:50:21.173Z,20.20
2019-01-25T11:52:50.008Z,20.20
2019-01-25T11:55:19.740Z,20.20
2019-01-25T11:57:49.980Z,20.30
2019-01-25T12:00:25.740Z,20.50
2019-01-25T12:02:54.708Z,20.60
2019-01-25T12:05:24.369Z,20.70
2019-01-25T12:07:54.952Z,20.60
2019-01-25T12:10:27.865Z,20.50
2019-01-25T12:12:58.075Z,20.50
2019-01-25T12:15:28.300Z,20.50
2019-01-25T12:17:58.728Z,20.40
2019-01-25T12:20:33.353Z,20.40
2019-01-25T12:23:03.797Z,20.30
2019-01-25T12:25:34.102Z,20.30
2019-01-25T12:28:05.477Z,20.30
2019-01-25T12:30:38.377Z,20.30
2019-01-25T12:33:10.063Z,20.20
2019-01-25T12:35:40.949Z,20.20
2019-01-25T12:38:11.359Z,20.20
2019-01-25T12:40:42.588Z,20.10
2019-01-25T12:43:12.759Z,20.10
2019-01-25T12:45:42.984Z,20.10
2019-01-25T12:48:12.679Z,20.10
2019-01-25T12:50:51.880Z,20.00
2019-01-25T12:53:22.764Z,20.00
2019-01-25T12:55:52.968Z,20.20
2019-01-25T12:58:22.626Z,20.20
2019-01-25T13:00:54.204Z,20.10
2019-01-25T13:03:24.754Z,20.10
2019-01-25T13:05:54.407Z,20.00
2019-01-25T13:08:24.696Z,20.00
2019-01-25T13:10:55.091Z,20.00
2019-01-25T13:13:31.562Z,20.00
2019-01-25T13:15:57.249Z,19.90
2019-01-25T13:18:27.453Z,19.90
2019-01-25T13:20:57.679Z,19.90
2019-01-25T13:23:27.919Z,19.90
2019-01-25T13:25:58.137Z,19.90
2019-01-25T13:28:28.687Z,19.90
2019-01-25T13:30:59.400Z,19.90
2019-01-25T13:33:29.723Z,19.90
2019-01-25T13:35:59.931Z,19.90
2019-01-25T13:38:30.168Z,20.50
2019-01-25T13:41:00.379Z,19.90
2019-01-25T13:43:30.048Z,19.90
2019-01-25T13:45:59.701Z,19.90
2019-01-25T13:48:29.920Z,19.90
2019-01-25T13:51:00.143Z,19.90
2019-01-25T13:53:29.819Z,19.80
2019-01-25T13:55:59.762Z,19.80
2019-01-25T13:58:30.048Z,19.90
2019-01-25T14:01:00.248Z,19.90
2019-01-25T14:03:30.467Z,20.00
2019-01-25T14:06:00.689Z,20.10
2019-01-25T14:08:30.937Z,20.10
2019-01-25T14:11:01.168Z,20.20
2019-01-25T14:13:34.211Z,20.30
2019-01-25T14:16:02.750Z,20.30
2019-01-25T14:18:32.982Z,20.30
2019-01-25T14:21:03.201Z,20.40
2019-01-25T14:23:33.421Z,20.40
2019-01-25T14:26:03.647Z,20.40
2019-01-25T14:28:33.934Z,20.50
2019-01-25T14:31:04.149Z,20.50
2019-01-25T14:33:34.388Z,20.50
2019-01-25T14:36:04.611Z,20.60
2019-01-25T14:38:34.828Z,20.60
2019-01-25T14:41:05.076Z,20.70
2019-01-25T14:43:35.307Z,20.70
2019-01-25T14:46:05.533Z,20.70
2019-01-25T14:48:38.147Z,20.70
2019-01-25T14:51:07.715Z,20.70
2019-01-25T14:53:37.935Z,20.70
2019-01-25T14:56:08.134Z,20.70
2019-01-25T14:58:38.392Z,20.70
2019-01-25T15:01:08.665Z,20.70
2019-01-25T15:03:38.893Z,20.70
2019-01-25T15:06:09.120Z,20.70
2019-01-25T15:08:39.351Z,20.60
2019-01-25T15:11:09.608Z,20.60
2019-01-25T15:13:39.820Z,20.60
2019-01-25T15:16:10.042Z,20.60
2019-01-25T15:18:40.271Z,20.50
2019-01-25T15:21:10.568Z,20.50
2019-01-25T15:23:40.791Z,20.40
2019-01-25T15:26:11.067Z,20.40
2019-01-25T15:28:41.302Z,20.40
2019-01-25T15:31:11.514Z,20.40
2019-01-25T15:33:41.731Z,20.40
2019-01-25T15:36:11.937Z,20.40
2019-01-25T15:38:42.143Z,20.40
2019-01-25T15:41:12.368Z,20.30
2019-01-25T15:43:42.610Z,20.30
2019-01-25T15:46:12.842Z,20.30
2019-01-25T15:48:43.060Z,20.30
2019-01-25T15:51:12.720Z,20.30
2019-01-25T15:53:42.936Z,20.30
2019-01-25T15:56:13.143Z,20.30
2019-01-25T15:58:42.966Z,20.20
2019-01-25T16:01:12.622Z,20.20
2019-01-25T16:03:42.284Z,20.20
2019-01-25T16:06:11.939Z,20.10
2019-01-25T16:08:41.598Z,20.10
2019-01-25T16:11:11.817Z,20.10
2019-01-25T16:13:42.104Z,20.10
2019-01-25T16:16:11.761Z,20.10
2019-01-25T16:18:41.420Z,20.00
2019-01-25T16:21:11.106Z,20.00
2019-01-25T16:23:40.817Z,20.00
2019-01-25T16:26:10.467Z,20.00
2019-01-25T16:28:40.124Z,20.00
2019-01-25T16:31:09.915Z,19.90
2019-01-25T16:33:40.120Z,19.90
2019-01-25T16:36:09.780Z,19.90
2019-01-25T16:38:39.444Z,19.90
2019-01-25T16:41:09.235Z,19.80
2019-01-25T16:43:38.885Z,19.80
2019-01-25T16:46:08.549Z,19.80
2019-01-25T16:48:38.196Z,19.90
2019-01-25T16:51:07.861Z,19.90
2019-01-25T16:53:37.510Z,19.90
2019-01-25T16:56:07.731Z,20.00
2019-01-25T16:58:37.948Z,20.10
2019-01-25T17:01:08.169Z,20.10
2019-01-25T17:03:38.420Z,20.20
2019-01-25T17:06:08.645Z,20.20
2019-01-25T17:08:38.865Z,20.30
2019-01-25T17:11:08.524Z,20.30
2019-01-25T17:13:38.192Z,20.30
2019-01-25T17:16:10.195Z,20.30
2019-01-25T17:18:40.409Z,20.40
2019-01-25T17:21:10.625Z,20.40
2019-01-25T17:23:40.828Z,20.40
2019-01-25T17:26:11.052Z,20.50
2019-01-25T17:28:42.635Z,20.40
2019-01-25T17:31:12.929Z,20.50
2019-01-25T17:33:43.163Z,20.40
2019-01-25T17:36:13.483Z,20.50
2019-01-25T17:38:43.722Z,20.50
2019-01-25T17:41:13.933Z,20.40
2019-01-25T17:43:44.161Z,20.40
2019-01-25T17:46:13.816Z,20.50
2019-01-25T17:48:44.320Z,20.40
2019-01-25T17:51:15.819Z,20.40
2019-01-25T17:53:45.715Z,20.40
2019-01-25T17:56:15.521Z,20.50
2019-01-25T17:58:45.747Z,20.40
2019-01-25T18:01:15.964Z,20.50
2019-01-25T18:03:46.185Z,20.40
2019-01-25T18:06:16.418Z,20.40
2019-01-25T18:08:46.704Z,20.40
2019-01-25T18:11:16.386Z,20.40
2019-01-25T18:13:46.604Z,20.40
2019-01-25T18:16:16.833Z,20.40
2019-01-25T18:18:47.222Z,20.30
2019-01-25T18:21:17.616Z,20.30
2019-01-25T18:23:47.281Z,20.20
2019-01-25T18:26:17.511Z,20.20
2019-01-25T18:28:49.209Z,20.20
2019-01-25T18:31:21.809Z,20.10
2019-01-25T18:33:52.034Z,20.10
2019-01-25T18:36:21.689Z,20.10
2019-01-25T18:38:51.465Z,20.10
2019-01-25T18:41:21.123Z,20.10
2019-01-25T18:43:51.340Z,20.10
2019-01-25T18:46:20.992Z,20.10
2019-01-25T18:48:50.668Z,20.10
2019-01-25T18:51:20.326Z,20.00
2019-01-25T18:53:49.981Z,20.00
2019-01-25T18:56:19.635Z,20.00
2019-01-25T18:58:49.347Z,20.00
2019-01-25T19:01:19.595Z,20.00
2019-01-25T19:03:50.680Z,20.00
2019-01-25T19:06:20.690Z,19.90
2019-01-25T19:08:50.623Z,19.90
2019-01-25T19:11:20.296Z,19.90
2019-01-25T19:13:49.955Z,19.90
2019-01-25T19:16:19.624Z,19.90
2019-01-25T19:18:50.460Z,19.80
2019-01-25T19:21:20.120Z,19.80
2019-01-25T19:23:49.792Z,19.80
2019-01-25T19:26:19.623Z,19.80
2019-01-25T19:28:49.504Z,19.80
2019-01-25T19:31:19.168Z,19.70
2019-01-25T19:33:48.871Z,19.70
2019-01-25T19:36:18.537Z,19.70
2019-01-25T19:38:48.207Z,19.70
2019-01-25T19:41:17.868Z,19.70
2019-01-25T19:43:47.588Z,19.60
2019-01-25T19:46:17.258Z,19.60
2019-01-25T19:48:46.931Z,19.60
2019-01-25T19:51:16.613Z,19.60
2019-01-25T19:53:46.291Z,19.50
2019-01-25T19:56:17.149Z,19.50
2019-01-25T19:58:46.828Z,19.50
2019-01-25T20:01:16.496Z,19.50
2019-01-25T20:03:46.180Z,19.50
2019-01-25T20:06:15.848Z,19.40
2019-01-25T20:08:45.550Z,19.40
2019-01-25T20:11:15.216Z,19.40
2019-01-25T20:13:44.896Z,19.40
2019-01-25T20:16:14.690Z,19.40
2019-01-25T20:18:44.385Z,19.40
2019-01-25T20:21:14.060Z,19.30
2019-01-25T20:23:43.748Z,19.30
2019-01-25T20:26:13.428Z,19.30
2019-01-25T20:28:43.105Z,19.20
2019-01-25T20:31:12.775Z,19.20
2019-01-25T20:33:42.453Z,19.20
2019-01-25T20:36:12.137Z,19.20
2019-01-25T20:38:41.815Z,19.20
2019-01-25T20:41:11.497Z,19.30
2019-01-25T20:43:41.193Z,19.30
2019-01-25T20:46:10.880Z,19.40
2019-01-25T20:48:40.644Z,19.50
2019-01-25T20:51:10.361Z,19.50
2019-01-25T20:53:40.032Z,19.60
2019-01-25T20:56:09.725Z,19.60
2019-01-25T20:58:39.393Z,19.70
2019-01-25T21:01:09.661Z,19.80
2019-01-25T21:03:39.919Z,19.80
2019-01-25T21:06:09.588Z,19.90
2019-01-25T21:08:39.272Z,19.90
2019-01-25T21:11:08.939Z,19.90
2019-01-25T21:13:38.617Z,19.90
2019-01-25T21:16:10.677Z,19.90
2019-01-25T21:18:40.338Z,20.00
2019-01-25T21:21:10.025Z,20.00
2019-01-25T21:23:40.302Z,20.00
2019-01-25T21:26:10.560Z,20.00
2019-01-25T21:28:40.241Z,19.90
2019-01-25T21:31:10.471Z,19.90
2019-01-25T21:33:40.742Z,19.90
2019-01-25T21:36:10.990Z,19.90
2019-01-25T21:38:41.233Z,19.90
2019-01-25T21:41:11.469Z,19.90
2019-01-25T21:43:41.720Z,19.90
2019-01-25T21:46:11.962Z,19.80
2019-01-25T21:48:41.639Z,19.90
2019-01-25T21:51:14.258Z,19.80
2019-01-25T21:53:43.960Z,19.80
2019-01-25T21:56:13.613Z,19.80
2019-01-25T21:58:43.872Z,19.80
2019-01-25T22:01:14.124Z,19.70
2019-01-25T22:03:43.795Z,19.70
2019-01-25T22:06:13.457Z,19.70
2019-01-25T22:08:43.122Z,19.70
2019-01-25T22:11:12.793Z,19.70
2019-01-25T22:13:42.455Z,19.60
2019-01-25T22:16:12.120Z,19.60
2019-01-25T22:18:41.792Z,19.60
2019-01-25T22:21:11.468Z,19.60
2019-01-25T22:23:42.321Z,19.50
2019-01-25T22:26:12.012Z,19.50
2019-01-25T22:28:41.671Z,19.50
2019-01-25T22:31:11.337Z,19.50
2019-01-25T22:33:41.081Z,19.50
2019-01-25T22:36:10.826Z,19.40
2019-01-25T22:38:40.495Z,19.40
2019-01-25T22:41:10.166Z,19.40
2019-01-25T22:43:39.832Z,19.40
2019-01-25T22:46:09.504Z,19.40
2019-01-25T22:48:40.335Z,19.30
2019-01-25T22:51:10.000Z,19.30
2019-01-25T22:53:39.696Z,19.30
2019-01-25T22:56:09.368Z,19.30
2019-01-25T22:58:39.068Z,19.30
2019-01-25T23:01:12.134Z,19.30
2019-01-25T23:03:47.697Z,19.20
2019-01-25T23:06:41.716Z,19.20
2019-01-25T23:09:20.804Z,19.20
2019-01-25T23:11:50.471Z,19.20
2019-01-25T23:14:20.144Z,19.20
2019-01-25T23:16:49.812Z,19.20
2019-01-25T23:19:19.478Z,19.10
2019-01-25T23:21:50.317Z,19.10
2019-01-25T23:24:20.391Z,19.10
2019-01-25T23:26:50.121Z,19.10
2019-01-25T23:29:19.808Z,19.10
2019-01-25T23:31:49.480Z,19.10
2019-01-25T23:34:19.147Z,19.00
2019-01-25T23:36:48.817Z,19.00
2019-01-25T23:39:18.489Z,19.00
2019-01-25T23:41:48.160Z,18.90
2019-01-25T23:44:17.824Z,18.90
2019-01-25T23:46:47.490Z,18.90
2019-01-25T23:49:17.189Z,18.90
2019-01-25T23:51:46.858Z,18.90
2019-01-25T23:54:16.529Z,18.90
2019-01-25T23:56:46.196Z,18.90
2019-01-25T23:59:17.149Z,18.80
